Time;durP1;ratioP1;P1;durP2;ratioP2;P2;SDS_P1;SDS_P2;PMS_P1;PMS_P2;Temp;Humidity;BMP_temperature;BMP_pressure;BME280_temperature;BME280_humidity;BME280_pressure;Samples;Min_cycle;Max_cycle;Signal;HPM_P1;HPM_P2
2024/04/02 00:09:28;;;;;;;;;;;7.60;37.60;;;;;;5039938;28;19915;-75
2024/04/02 00:11:55;;;;;;;;;;;7.60;41.00;;;;;;5050669;28;20390;-75
2024/04/02 00:14:21;;;;;;;;;;;7.50;37.50;;;;;;5056573;28;20002;-75
2024/04/02 00:16:55;;;;;;;;;;;7.50;41.00;;;;;;5061257;28;19960;-75
2024/04/02 00:19:21;;;;;;;;;;;7.50;37.50;;;;;;5060578;28;19912;-75
2024/04/02 00:21:46;;;;;;;;;;;7.50;40.70;;;;;;5054352;28;19920;-76
2024/04/02 00:24:13;;;;;;;;;;;7.50;37.50;;;;;;5052879;28;19909;-76
2024/04/02 00:26:39;;;;;;;;;;;7.50;40.70;;;;;;5052822;28;19970;-75
2024/04/02 00:29:04;;;;;;;;;;;7.50;40.50;;;;;;5051683;28;19974;-75
2024/04/02 00:31:30;;;;;;;;;;;7.50;40.50;;;;;;5036297;28;19978;-75
2024/04/02 00:34:13;;;;;;;;;;;7.40;40.70;;;;;;5066729;28;19932;-75
2024/04/02 00:36:39;;;;;;;;;;;7.40;45.10;;;;;;5057295;28;19916;-75
2024/04/02 00:39:19;;;;;;;;;;;7.30;37.40;;;;;;5058142;28;19934;-76
2024/04/02 00:41:45;;;;;;;;;;;7.40;40.90;;;;;;5053752;28;19919;-78
2024/04/02 00:44:13;;;;;;;;;;;7.40;40.70;;;;;;5049940;28;19908;-79
2024/04/02 00:47:13;;;;;;;;;;;7.40;40.70;;;;;;5060102;28;19923;-78
2024/04/02 00:49:44;;;;;;;;;;;7.30;40.60;;;;;;5058764;28;19913;-78
2024/04/02 00:55:13;;;;;;;;;;;7.10;40.40;;;;;;5073036;28;20433;-75
2024/04/02 00:57:39;;;;;;;;;;;7.10;40.40;;;;;;5057501;28;19912;-75
2024/04/02 01:00:05;;;;;;;;;;;7.20;37.30;;;;;;5056605;28;20042;-76
2024/04/02 01:02:30;;;;;;;;;;;7.20;40.60;;;;;;5061356;28;19912;-76
2024/04/02 01:05:01;;;;;;;;;;;7.20;37.30;;;;;;5063787;28;19916;-75
2024/04/02 01:07:27;;;;;;;;;;;7.20;40.80;;;;;;5049827;28;19924;-75
2024/04/02 01:09:52;;;;;;;;;;;7.10;37.20;;;;;;5056191;28;19955;-78
2024/04/02 01:12:18;;;;;;;;;;;7.10;40.50;;;;;;5053094;28;19919;-78
2024/04/02 01:14:49;;;;;;;;;;;7.00;40.30;;;;;;5052551;28;19912;-78
2024/04/02 01:17:19;;;;;;;;;;;7.00;37.10;;;;;;5052885;28;19913;-78
2024/04/02 01:19:45;;;;;;;;;;;7.10;40.70;;;;;;5052457;28;19943;-78
2024/04/02 01:22:25;;;;;;;;;;;7.00;37.10;;;;;;5052828;28;19960;-77
2024/04/02 01:24:57;;;;;;;;;;;7.00;40.40;;;;;;5068087;28;19915;-76
2024/04/02 01:27:26;;;;;;;;;;;7.00;40.30;;;;;;5046824;28;19916;-75
2024/04/02 01:29:56;;;;;;;;;;;7.00;40.30;;;;;;5051251;28;19916;-75
2024/04/02 01:32:22;;;;;;;;;;;7.00;40.30;;;;;;5053653;28;19913;-75
2024/04/02 01:35:07;;;;;;;;;;;7.00;37.20;;;;;;5055207;28;19914;-75
2024/04/02 01:37:37;;;;;;;;;;;7.00;40.40;;;;;;5043276;28;19913;-75
2024/04/02 01:40:03;;;;;;;;;;;7.00;37.10;;;;;;5061236;28;19912;-76
2024/04/02 01:42:37;;;;;;;;;;;7.00;40.70;;;;;;5055474;28;19912;-75
2024/04/02 01:45:03;;;;;;;;;;;7.00;37.10;;;;;;5054106;28;19912;-75
2024/04/02 01:47:29;;;;;;;;;;;7.10;40.60;;;;;;5050963;28;20003;-75
2024/04/02 01:49:55;;;;;;;;;;;7.20;40.80;;;;;;5052855;28;20475;-75
2024/04/02 01:52:25;;;;;;;;;;;7.20;37.40;;;;;;5053978;28;20205;-75
2024/04/02 01:54:51;;;;;;;;;;;7.30;41.20;;;;;;5053026;28;19909;-76
2024/04/02 02:00:19;;;;;;;;;;;7.40;42.80;;;;;;5043496;28;19928;-78
2024/04/02 02:05:49;;;;;;;;;;;7.60;41.00;;;;;;5062756;28;19962;-78
2024/04/02 02:08:15;;;;;;;;;;;7.70;41.00;;;;;;5055592;28;19917;-78
2024/04/02 02:10:49;;;;;;;;;;;7.70;41.00;;;;;;5065728;28;19961;-75
2024/04/02 02:13:15;;;;;;;;;;;7.80;45.10;;;;;;5065569;28;19912;-75
2024/04/02 02:15:41;;;;;;;;;;;7.80;41.00;;;;;;5052897;28;19909;-76
2024/04/02 02:18:13;;;;;;;;;;;7.80;41.00;;;;;;5045883;28;19917;-75
2024/04/02 02:21:07;;;;;;;;;;;7.90;41.10;;;;;;5046186;28;20017;-75
2024/04/02 02:23:33;;;;;;;;;;;7.90;37.90;;;;;;5051398;28;19909;-76
2024/04/02 02:29:07;;;;;;;;;;;8.00;34.60;;;;;;5052771;28;19914;-78
2024/04/02 02:32:01;;;;;;;;;;;8.00;33.40;;;;;;5061516;28;19909;-78
2024/04/02 02:34:26;;;;;;;;;;;8.00;30.00;;;;;;5057947;28;19908;-78
2024/04/02 02:37:01;;;;;;;;;;;8.10;27.40;;;;;;5071859;28;19919;-78
2024/04/02 02:39:32;;;;;;;;;;;8.20;24.60;;;;;;5076207;28;20003;-78
2024/04/02 02:42:25;;;;;;;;;;;8.20;23.80;;;;;;5043518;28;19952;-78
2024/04/02 02:48:13;;;;;;;;;;;8.40;20.00;;;;;;5056106;28;19916;-78
2024/04/02 02:53:42;;;;;;;;;;;8.50;14.50;;;;;;5063747;28;19919;-78
2024/04/02 02:56:14;;;;;;;;;;;8.60;10.50;;;;;;5043437;28;19908;-76
2024/04/02 02:58:41;;;;;;;;;;;8.60;12.40;;;;;;5054381;28;19924;-75
2024/04/02 03:01:06;;;;;;;;;;;8.80;8.50;;;;;;5058096;28;19909;-75
2024/04/02 03:03:32;;;;;;;;;;;8.80;10.10;;;;;;5062361;28;20003;-75
2024/04/02 03:06:01;;;;;;;;;;;8.90;7.10;;;;;;5062798;28;20268;-75
2024/04/02 03:08:28;;;;;;;;;;;8.90;5.60;;;;;;5048074;28;19917;-75
2024/04/02 03:14:18;;;;;;;;;;;8.80;1.00;;;;;;5067085;28;19920;-77
2024/04/02 03:16:44;;;;;;;;;;;8.80;3.50;;;;;;5070453;28;20318;-78
2024/04/02 03:25:15;;;;;;;;;;;8.90;2.10;;;;;;5055102;28;19916;-79
2024/04/02 03:27:43;;;;;;;;;;;8.90;1.00;;;;;;5055489;28;20264;-75
2024/04/02 03:30:09;;;;;;;;;;;8.90;1.00;;;;;;5042750;28;19908;-75
2024/04/02 03:32:35;;;;;;;;;;;8.90;1.00;;;;;;5054910;28;19913;-75
2024/04/02 03:35:01;;;;;;;;;;;8.90;1.00;;;;;;5052155;28;20377;-76
2024/04/02 03:37:37;;;;;;;;;;;8.90;1.00;;;;;;5063466;28;19962;-77
2024/04/02 03:40:07;;;;;;;;;;;8.90;1.00;;;;;;5060174;28;19917;-76
2024/04/02 03:42:37;;;;;;;;;;;9.00;1.00;;;;;;5060556;28;19920;-75
2024/04/02 03:45:13;;;;;;;;;;;9.00;1.00;;;;;;5062084;28;19912;-76
2024/04/02 03:47:43;;;;;;;;;;;9.00;1.00;;;;;;5061482;28;19913;-76
2024/04/02 03:50:09;;;;;;;;;;;9.00;1.00;;;;;;5055015;28;19908;-76
2024/04/02 03:52:37;;;;;;;;;;;9.10;1.00;;;;;;5054008;28;19931;-75
2024/04/02 03:55:03;;;;;;;;;;;9.10;1.00;;;;;;5053663;28;19951;-76
2024/04/02 03:57:31;;;;;;;;;;;9.10;1.00;;;;;;5066929;28;19913;-76
2024/04/02 04:00:07;;;;;;;;;;;9.20;1.00;;;;;;5063457;28;19945;-76
2024/04/02 04:02:33;;;;;;;;;;;9.10;1.00;;;;;;5051763;28;19913;-76
2024/04/02 04:04:59;;;;;;;;;;;9.10;1.00;;;;;;5044119;28;19996;-75
2024/04/02 04:07:25;;;;;;;;;;;9.10;1.00;;;;;;5054624;28;19963;-75
2024/04/02 04:09:55;;;;;;;;;;;9.00;1.00;;;;;;5054232;28;20303;-76
2024/04/02 04:12:25;;;;;;;;;;;9.00;1.00;;;;;;5051305;28;19916;-75
2024/04/02 04:14:51;;;;;;;;;;;8.90;1.00;;;;;;5064538;28;19958;-75
2024/04/02 04:17:19;;;;;;;;;;;8.90;1.00;;;;;;5067710;28;20295;-76
2024/04/02 04:19:45;;;;;;;;;;;8.90;1.00;;;;;;5054284;28;19912;-75
2024/04/02 04:22:10;;;;;;;;;;;8.90;1.00;;;;;;5050960;28;19909;-75
2024/04/02 04:24:36;;;;;;;;;;;8.90;1.00;;;;;;5046751;28;19913;-75
2024/04/02 04:27:13;;;;;;;;;;;9.00;1.00;;;;;;5054710;28;19917;-78
2024/04/02 04:29:39;;;;;;;;;;;8.90;1.00;;;;;;5055194;28;19917;-79
2024/04/02 04:32:15;;;;;;;;;;;9.00;1.00;;;;;;5068831;28;19974;-78
2024/04/02 04:35:14;;;;;;;;;;;8.90;1.00;;;;;;5050213;28;19916;-78
2024/04/02 04:38:07;;;;;;;;;;;8.90;1.00;;;;;;5054563;28;19923;-78
2024/04/02 04:41:07;;;;;;;;;;;9.00;1.00;;;;;;5036099;28;19919;-79
2024/04/02 04:43:37;;;;;;;;;;;9.00;1.00;;;;;;5052536;28;19909;-75
2024/04/02 04:46:06;;;;;;;;;;;9.00;1.00;;;;;;5053798;28;19913;-75
2024/04/02 04:48:31;;;;;;;;;;;9.00;1.00;;;;;;5053734;28;20331;-75
2024/04/02 04:51:01;;;;;;;;;;;9.00;1.00;;;;;;5039988;28;19909;-75
2024/04/02 04:54:01;;;;;;;;;;;9.00;1.00;;;;;;5053544;28;19996;-76
2024/04/02 04:56:49;;;;;;;;;;;9.00;1.00;;;;;;5054582;28;20063;-76
2024/04/02 04:59:37;;;;;;;;;;;9.00;1.00;;;;;;5053568;28;19962;-78
2024/04/02 05:02:07;;;;;;;;;;;9.00;1.00;;;;;;5042151;28;19909;-78
2024/04/02 05:07:55;;;;;;;;;;;9.10;1.00;;;;;;5037329;28;19923;-78
2024/04/02 05:10:43;;;;;;;;;;;9.10;1.00;;;;;;5054220;28;20003;-78
2024/04/02 05:13:37;;;;;;;;;;;9.00;1.00;;;;;;5058818;28;19913;-80
2024/04/02 05:19:08;;;;;;;;;;;9.10;1.00;;;;;;5050217;28;19966;-82
2024/04/02 05:21:34;;;;;;;;;;;9.20;1.00;;;;;;5061962;28;19913;-78
2024/04/02 05:24:03;;;;;;;;;;;9.20;1.00;;;;;;5066332;28;19995;-78
2024/04/02 05:26:28;;;;;;;;;;;9.20;1.00;;;;;;5052773;28;20004;-78
2024/04/02 05:32:19;;;;;;;;;;;9.20;1.00;;;;;;5037671;28;19959;-79
2024/04/02 05:34:49;;;;;;;;;;;9.20;1.00;;;;;;5052942;28;19916;-78
2024/04/02 05:37:25;;;;;;;;;;;9.20;1.00;;;;;;5059322;28;19909;-78
2024/04/02 05:39:51;;;;;;;;;;;9.30;1.00;;;;;;5049024;28;19950;-79
2024/04/02 05:42:16;;;;;;;;;;;9.30;1.00;;;;;;5053297;28;19915;-78
2024/04/02 05:44:42;;;;;;;;;;;9.30;1.00;;;;;;5054930;28;20144;-76
2024/04/02 05:47:09;;;;;;;;;;;9.40;1.00;;;;;;5053395;28;20372;-76
2024/04/02 05:49:55;;;;;;;;;;;9.40;1.00;;;;;;5055218;28;19909;-76
2024/04/02 05:52:25;;;;;;;;;;;9.40;1.00;;;;;;5057025;28;19923;-76
2024/04/02 05:54:51;;;;;;;;;;;9.50;1.00;;;;;;5060926;28;19921;-75
2024/04/02 05:57:37;;;;;;;;;;;9.50;1.00;;;;;;5052594;28;19909;-75
2024/04/02 06:00:05;;;;;;;;;;;9.70;1.00;;;;;;5046255;28;19919;-79
2024/04/02 06:02:49;;;;;;;;;;;9.80;1.00;;;;;;5056699;28;19909;-78
2024/04/02 06:08:31;;;;;;;;;;;10.00;1.00;;;;;;5032603;28;19994;-79
2024/04/02 06:11:19;;;;;;;;;;;9.90;1.00;;;;;;5051086;28;19913;-79
2024/04/02 06:13:45;;;;;;;;;;;9.90;1.00;;;;;;5050175;28;19967;-76
2024/04/02 06:16:13;;;;;;;;;;;9.90;1.00;;;;;;5058038;28;19921;-75
2024/04/02 06:18:39;;;;;;;;;;;9.90;1.00;;;;;;5058331;28;19935;-75
2024/04/02 06:21:09;;;;;;;;;;;10.00;1.00;;;;;;5035311;28;19912;-75
2024/04/02 06:23:37;;;;;;;;;;;10.20;1.00;;;;;;5045893;28;19996;-75
2024/04/02 06:26:03;;;;;;;;;;;10.20;1.00;;;;;;5061212;28;19909;-75
2024/04/02 06:34:34;;;;;;;;;;;10.20;1.00;;;;;;5056768;28;19944;-78
2024/04/02 06:37:07;;;;;;;;;;;10.20;1.00;;;;;;5056926;28;19917;-79
2024/04/02 06:45:41;;;;;;;;;;;10.20;1.00;;;;;;5062667;28;19920;-75
2024/04/02 06:48:19;;;;;;;;;;;10.30;1.00;;;;;;5055753;28;20394;-75
2024/04/02 06:50:45;;;;;;;;;;;10.30;1.00;;;;;;5064084;28;20000;-75
2024/04/02 06:53:11;;;;;;;;;;;;;;;;;;5047957;28;20005;-75
2024/04/02 06:55:37;;;;;;;;;;;10.30;1.00;;;;;;5056550;28;19909;-75
2024/04/02 06:58:03;;;;;;;;;;;10.30;1.00;;;;;;5074145;28;19967;-75
2024/04/02 07:03:31;;;;;;;;;;;10.40;1.00;;;;;;5047131;28;19972;-82
2024/04/02 07:09:00;;;;;;;;;;;10.50;1.00;;;;;;5050305;28;20418;-78
2024/04/02 07:11:37;;;;;;;;;;;10.60;1.00;;;;;;5053337;28;19913;-78
2024/04/02 07:14:03;;;;;;;;;;;10.60;1.00;;;;;;5055196;28;19959;-79
2024/04/02 07:16:28;;;;;;;;;;;10.50;1.00;;;;;;5058882;28;19913;-79
2024/04/02 07:19:07;;;;;;;;;;;10.50;1.00;;;;;;5056188;28;19917;-78
2024/04/02 07:24:37;;;;;;;;;;;10.60;1.00;;;;;;5064664;28;20320;-78
2024/04/02 07:27:25;;;;;;;;;;;10.50;1.00;;;;;;5043593;28;19920;-79
2024/04/02 07:30:19;;;;;;;;;;;10.60;1.00;;;;;;5046396;28;20372;-80
2024/04/02 07:32:55;;;;;;;;;;;10.70;1.00;;;;;;5046143;28;19917;-83
2024/04/02 07:41:27;;;;;;;;;;;11.10;1.00;;;;;;5055073;28;20382;-84
2024/04/02 07:47:01;;;;;;;;;;;11.20;1.00;;;;;;5048651;28;20388;-79
2024/04/02 07:52:37;;;;;;;;;;;11.50;1.00;;;;;;5053994;28;19915;-79
2024/04/02 07:55:13;;;;;;;;;;;11.40;1.00;;;;;;5067742;28;19912;-79
2024/04/02 08:04:20;;;;;;;;;;;11.50;1.00;;;;;;5054185;28;19913;-85
2024/04/02 08:06:49;;;;;;;;;;;11.40;1.00;;;;;;5038183;28;19912;-85
2024/04/02 08:09:15;;;;;;;;;;;11.60;1.00;;;;;;5054548;28;20410;-86
2024/04/02 08:11:43;;;;;;;;;;;11.70;1.00;;;;;;5041428;28;19944;-84
2024/04/02 08:14:22;;;;;;;;;;;11.90;1.00;;;;;;5039894;28;19915;-86
2024/04/02 08:16:55;;;;;;;;;;;11.70;1.00;;;;;;5042843;28;19916;-80
2024/04/02 08:19:25;;;;;;;;;;;11.70;1.00;;;;;;5056018;28;19917;-80
2024/04/02 08:22:07;;;;;;;;;;;12.20;1.00;;;;;;5056974;28;20319;-80
2024/04/02 08:24:38;;;;;;;;;;;12.20;1.00;;;;;;5057700;28;19912;-78
2024/04/02 08:27:07;;;;;;;;;;;12.20;1.00;;;;;;5054365;28;19913;-79
2024/04/02 08:30:01;;;;;;;;;;;12.30;1.00;;;;;;5040710;28;19913;-83
2024/04/02 08:32:49;;;;;;;;;;;12.30;1.00;;;;;;5051619;28;19908;-80
2024/04/02 08:38:18;;;;;;;;;;;12.60;1.00;;;;;;5049965;28;19919;-79
2024/04/02 08:41:07;;;;;;;;;;;12.70;1.00;;;;;;5056077;28;19912;-82
2024/04/02 08:43:39;;;;;;;;;;;12.70;1.00;;;;;;5047047;28;20007;-80
2024/04/02 08:49:37;;;;;;;;;;;12.60;1.00;;;;;;5037405;28;20277;-80
2024/04/02 08:52:19;;;;;;;;;;;12.60;1.00;;;;;;5052648;28;19917;-81
2024/04/02 08:54:50;;;;;;;;;;;12.40;1.00;;;;;;5058021;28;20114;-77
2024/04/02 09:00:19;;;;;;;;;;;12.40;1.00;;;;;;5051977;28;19924;-75
2024/04/02 09:02:46;;;;;;;;;;;12.40;1.00;;;;;;5057525;28;19912;-73
2024/04/02 09:05:13;;;;;;;;;;;12.40;1.00;;;;;;5053820;28;19919;-74
2024/04/02 09:07:43;;;;;;;;;;;12.40;1.00;;;;;;5055116;28;19916;-74
2024/04/02 09:10:09;;;;;;;;;;;12.60;1.00;;;;;;5063427;28;20003;-75
2024/04/02 09:12:34;;;;;;;;;;;12.60;1.00;;;;;;5051952;28;19948;-75
2024/04/02 09:15:01;;;;;;;;;;;12.70;1.00;;;;;;5054217;28;19920;-75
2024/04/02 09:17:37;;;;;;;;;;;12.80;1.00;;;;;;5055564;28;19913;-80
2024/04/02 09:20:07;;;;;;;;;;;12.90;1.00;;;;;;5056695;28;19916;-79
2024/04/02 09:22:33;;;;;;;;;;;13.10;1.00;;;;;;5052323;28;19912;-79
2024/04/02 09:25:02;;;;;;;;;;;13.10;1.00;;;;;;5061775;28;19958;-79
2024/04/02 09:27:38;;;;;;;;;;;13.00;1.00;;;;;;5065390;28;19967;-79
2024/04/02 09:30:04;;;;;;;;;;;13.00;1.00;;;;;;5048660;28;19955;-79
2024/04/02 09:32:34;;;;;;;;;;;13.00;1.00;;;;;;5051956;28;20268;-74
2024/04/02 09:34:59;;;;;;;;;;;13.10;1.00;;;;;;5051968;28;19916;-76
2024/04/02 09:37:37;;;;;;;;;;;13.10;1.00;;;;;;5051381;28;20055;-75
2024/04/02 09:40:03;;;;;;;;;;;13.20;1.00;;;;;;5050533;28;20341;-75
2024/04/02 09:42:33;;;;;;;;;;;13.20;1.00;;;;;;5054280;28;20371;-74
2024/04/02 09:44:59;;;;;;;;;;;13.30;1.00;;;;;;5050622;28;19912;-75
2024/04/02 09:47:32;;;;;;;;;;;13.40;1.00;;;;;;5061353;28;19920;-79
2024/04/02 09:50:03;;;;;;;;;;;13.30;1.00;;;;;;5050751;28;19919;-79
2024/04/02 09:55:33;;;;;;;;;;;13.80;1.00;;;;;;5052013;28;19971;-72
2024/04/02 09:57:59;;;;;;;;;;;13.80;1.00;;;;;;5052900;28;20276;-78
2024/04/02 10:00:26;;;;;;;;;;;13.80;1.00;;;;;;5049421;28;19920;-73
2024/04/02 10:03:07;;;;;;;;;;;13.90;1.00;;;;;;5055543;28;19940;-80
2024/04/02 10:06:07;;;;;;;;;;;14.20;1.00;;;;;;5045515;28;20336;-79
2024/04/02 10:09:09;;;;;;;;;;;13.90;1.00;;;;;;5041492;28;19916;-80
2024/04/02 10:14:37;;;;;;;;;;;14.00;1.00;;;;;;5047569;28;20384;-78
2024/04/02 10:20:40;;;;;;;;;;;14.10;1.00;;;;;;5040174;28;19958;-78
2024/04/02 10:23:09;;;;;;;;;;;13.90;1.00;;;;;;4997609;28;19917;-78
2024/04/02 10:26:09;;;;;;;;;;;13.90;1.00;;;;;;4994369;28;19914;-82
2024/04/02 10:28:38;;;;;;;;;;;13.90;1.00;;;;;;4991384;28;19922;-79
2024/04/02 10:31:16;;;;;;;;;;;13.70;1.00;;;;;;4991621;28;19917;-71
2024/04/02 10:33:43;;;;;;;;;;;13.60;1.00;;;;;;4991882;28;19914;-74
2024/04/02 10:36:12;;;;;;;;;;;13.80;1.00;;;;;;4991381;28;19960;-74
2024/04/02 10:38:38;;;;;;;;;;;13.70;1.00;;;;;;4990615;28;20004;-74
2024/04/02 10:41:04;;;;;;;;;;;13.80;1.00;;;;;;4994728;28;20024;-75
2024/04/02 10:43:32;;;;;;;;;;;13.90;1.00;;;;;;4993404;28;19913;-76
2024/04/02 10:45:57;;;;;;;;;;;14.00;1.00;;;;;;5015390;28;19913;-75
2024/04/02 10:48:23;;;;;;;;;;;14.10;1.00;;;;;;5008939;28;20436;-75
2024/04/02 10:50:52;;;;;;;;;;;14.10;1.00;;;;;;5008684;28;19913;-75
2024/04/02 10:53:18;;;;;;;;;;;13.90;1.00;;;;;;5018676;28;19913;-75
2024/04/02 10:55:43;;;;;;;;;;;13.70;1.00;;;;;;5010083;28;19917;-76
2024/04/02 10:58:10;;;;;;;;;;;13.60;1.00;;;;;;5006244;28;19913;-74
2024/04/02 11:00:37;;;;;;;;;;;13.70;1.00;;;;;;5048658;28;19960;-75
2024/04/02 11:03:13;;;;;;;;;;;13.80;1.00;;;;;;5052382;28;19913;-76
2024/04/02 11:05:44;;;;;;;;;;;13.60;1.00;;;;;;5059455;28;19920;-74
2024/04/02 11:08:09;;;;;;;;;;;13.80;1.00;;;;;;5054452;28;19909;-74
2024/04/02 11:10:35;;;;;;;;;;;14.00;1.00;;;;;;5054731;28;19920;-75
2024/04/02 11:13:01;;;;;;;;;;;14.60;1.00;;;;;;5055011;28;19970;-75
2024/04/02 11:15:26;;;;;;;;;;;14.80;1.00;;;;;;5061538;28;19913;-75
2024/04/02 11:17:52;;;;;;;;;;;14.90;1.00;;;;;;5051993;28;19917;-75
2024/04/02 11:20:17;;;;;;;;;;;15.10;1.00;;;;;;5057382;28;19919;-75
2024/04/02 11:25:34;;;;;;;;;;;15.20;1.00;;;;;;5063840;28;19916;-74
2024/04/02 11:28:04;;;;;;;;;;;15.30;1.00;;;;;;5060076;28;19908;-74
2024/04/02 11:30:31;;;;;;;;;;;15.30;1.00;;;;;;5060480;28;19933;-75
2024/04/02 11:32:57;;;;;;;;;;;15.30;1.00;;;;;;5057761;28;19909;-75
2024/04/02 11:35:27;;;;;;;;;;;15.40;1.00;;;;;;5059647;28;19932;-75
2024/04/02 11:37:53;;;;;;;;;;;15.80;1.00;;;;;;5054072;28;19962;-75
2024/04/02 11:40:19;;;;;;;;;;;16.20;1.00;;;;;;5056727;28;19917;-75
2024/04/02 11:42:45;;;;;;;;;;;16.30;1.00;;;;;;5054016;28;19909;-75
2024/04/02 11:45:11;;;;;;;;;;;16.50;1.00;;;;;;5045805;28;19912;-75
2024/04/02 11:47:37;;;;;;;;;;;16.50;1.00;;;;;;5052591;28;20394;-75
2024/04/02 11:50:04;;;;;;;;;;;16.20;1.00;;;;;;5055075;28;20341;-75
2024/04/02 11:52:32;;;;;;;;;;;16.40;1.00;;;;;;5057943;28;19923;-76
2024/04/02 11:55:01;;;;;;;;;;;16.50;1.00;;;;;;5059628;28;19960;-75
2024/04/02 12:00:11;;;;;;;;;;;15.40;1.00;;;;;;5048066;28;19928;-74
2024/04/02 12:02:38;;;;;;;;;;;15.00;1.00;;;;;;5042453;28;20276;-79
2024/04/02 12:05:08;;;;;;;;;;;15.30;1.00;;;;;;5057874;28;19916;-80
2024/04/02 12:07:38;;;;;;;;;;;15.30;1.00;;;;;;5050518;28;20010;-79
2024/04/02 12:10:05;;;;;;;;;;;15.00;1.00;;;;;;5048569;28;19913;-79
2024/04/02 12:12:38;;;;;;;;;;;15.00;1.00;;;;;;5054531;28;20004;-79
2024/04/02 12:15:08;;;;;;;;;;;15.00;1.00;;;;;;5065091;28;19959;-80
2024/04/02 12:17:58;;;;;;;;;;;14.90;1.00;;;;;;5052729;28;19913;-75
2024/04/02 12:20:24;;;;;;;;;;;14.70;1.00;;;;;;5050700;28;19919;-75
2024/04/02 12:22:49;;;;;;;;;;;14.60;1.00;;;;;;5039466;28;19925;-76
2024/04/02 12:25:21;;;;;;;;;;;14.50;1.00;;;;;;5050454;28;19919;-75
2024/04/02 12:27:53;;;;;;;;;;;14.90;1.00;;;;;;5054664;28;19912;-75
2024/04/02 12:30:26;;;;;;;;;;;15.10;1.00;;;;;;5058661;28;19970;-75
2024/04/02 12:33:07;;;;;;;;;;;15.10;1.00;;;;;;5056710;28;20376;-77
2024/04/02 12:35:37;;;;;;;;;;;15.10;1.00;;;;;;5051392;28;19913;-79
2024/04/02 12:38:19;;;;;;;;;;;15.40;1.00;;;;;;5062657;28;19927;-81
2024/04/02 12:40:49;;;;;;;;;;;15.40;1.00;;;;;;5053188;28;20295;-77
2024/04/02 12:43:29;;;;;;;;;;;15.40;1.00;;;;;;5067066;28;19913;-80
2024/04/02 12:45:56;;;;;;;;;;;15.30;1.00;;;;;;5053098;28;19914;-78
2024/04/02 12:48:21;;;;;;;;;;;15.10;1.00;;;;;;5062510;28;19966;-77
2024/04/02 12:50:55;;;;;;;;;;;14.90;1.00;;;;;;5056039;28;20003;-76
2024/04/02 12:53:21;;;;;;;;;;;15.00;1.00;;;;;;5052869;28;20288;-75
2024/04/02 12:56:07;;;;;;;;;;;14.80;1.00;;;;;;5049397;28;19909;-77
2024/04/02 12:58:33;;;;;;;;;;;14.90;1.00;;;;;;5049113;28;19920;-75
2024/04/02 13:01:19;;;;;;;;;;;14.90;1.00;;;;;;5046362;28;19912;-75
2024/04/02 13:04:01;;;;;;;;;;;14.80;1.00;;;;;;5050842;28;19917;-77
2024/04/02 13:06:34;;;;;;;;;;;14.70;1.00;;;;;;5058817;28;20015;-78
2024/04/02 13:09:08;;;;;;;;;;;14.60;1.00;;;;;;5056150;28;20372;-79
2024/04/02 13:11:37;;;;;;;;;;;14.50;1.00;;;;;;5053114;28;19939;-79
2024/04/02 13:14:07;;;;;;;;;;;14.60;1.00;;;;;;5061862;28;19908;-77
2024/04/02 13:16:56;;;;;;;;;;;14.30;1.00;;;;;;5057650;28;19967;-78
2024/04/02 13:19:22;;;;;;;;;;;14.30;1.00;;;;;;5048754;28;19966;-75
2024/04/02 13:21:47;;;;;;;;;;;14.30;1.00;;;;;;5060428;28;19913;-77
2024/04/02 13:24:13;;;;;;;;;;;14.40;1.00;;;;;;5053942;28;19959;-76
2024/04/02 13:26:50;;;;;;;;;;;14.70;1.00;;;;;;5057187;28;19913;-76
2024/04/02 13:29:31;;;;;;;;;;;14.80;1.00;;;;;;5053397;28;20280;-77
2024/04/02 13:31:57;;;;;;;;;;;15.00;1.00;;;;;;5041903;28;19909;-75
2024/04/02 13:34:23;;;;;;;;;;;14.90;1.00;;;;;;5037058;28;19909;-76
2024/04/02 13:36:48;;;;;;;;;;;15.00;1.00;;;;;;5036227;28;19913;-75
2024/04/02 13:39:14;;;;;;;;;;;14.90;1.00;;;;;;5035390;28;19920;-78
2024/04/02 13:41:50;;;;;;;;;;;14.80;1.00;;;;;;5058352;28;19913;-77
2024/04/02 13:44:20;;;;;;;;;;;14.50;1.00;;;;;;5053667;28;19917;-80
2024/04/02 13:47:20;;;;;;;;;;;14.60;1.00;;;;;;5040629;28;19916;-82
2024/04/02 13:49:45;;;;;;;;;;;14.40;1.00;;;;;;5053988;28;19915;-80
2024/04/02 13:52:32;;;;;;;;;;;14.20;1.00;;;;;;5067181;28;20007;-79
2024/04/02 13:58:32;;;;;;;;;;;14.10;1.00;;;;;;5056747;28;20440;-79
2024/04/02 14:07:03;;;;;;;;;;;14.20;1.00;;;;;;5047020;28;19918;-79
2024/04/02 14:09:38;;;;;;;;;;;14.10;1.00;;;;;;5061138;28;19912;-78
2024/04/02 14:15:14;;;;;;;;;;;14.20;1.00;;;;;;5066799;28;19935;-78
2024/04/02 14:17:50;;;;;;;;;;;14.10;1.00;;;;;;5055456;28;19917;-77
2024/04/02 14:20:15;;;;;;;;;;;14.20;1.00;;;;;;5037065;28;19923;-78
2024/04/02 14:23:08;;;;;;;;;;;14.10;1.00;;;;;;5040510;28;20011;-79
2024/04/02 14:26:08;;;;;;;;;;;14.30;1.00;;;;;;5046892;28;19963;-83
2024/04/02 14:28:37;;;;;;;;;;;14.30;1.00;;;;;;5051346;28;19916;-74
2024/04/02 14:31:16;;;;;;;;;;;14.50;1.00;;;;;;5059035;28;19928;-81
2024/04/02 14:33:42;;;;;;;;;;;14.50;1.00;;;;;;5067882;28;19917;-76
2024/04/02 14:39:16;;;;;;;;;;;14.90;1.00;;;;;;5066400;28;20018;-80
2024/04/02 14:44:44;;;;;;;;;;;15.10;1.00;;;;;;5039147;28;20407;-78
2024/04/02 14:50:13;;;;;;;;;;;15.00;1.00;;;;;;5045661;28;19920;-77
2024/04/02 14:52:39;;;;;;;;;;;15.10;1.00;;;;;;5040814;28;19917;-80
2024/04/02 14:55:08;;;;;;;;;;;15.20;1.00;;;;;;5057136;28;19909;-79
2024/04/02 15:04:14;;;;;;;;;;;15.60;1.00;;;;;;5054098;28;19924;-76
2024/04/02 15:09:42;;;;;;;;;;;15.90;1.00;;;;;;5051306;28;19916;-78
2024/04/02 15:12:08;;;;;;;;;;;16.90;1.00;;;;;;5039275;28;19917;-76
2024/04/02 15:14:33;;;;;;;;;;;17.80;1.00;;;;;;5059264;28;19920;-76
2024/04/02 15:17:08;;;;;;;;;;;17.70;1.00;;;;;;5055823;28;19913;-77
2024/04/02 15:19:38;;;;;;;;;;;18.00;1.00;;;;;;5066091;28;19917;-79
2024/04/02 15:25:09;;;;;;;;;;;18.30;1.00;;;;;;5050590;28;19958;-80
2024/04/02 15:27:56;;;;;;;;;;;18.70;1.00;;;;;;5045464;28;19917;-81
2024/04/02 15:30:26;;;;;;;;;;;18.90;1.00;;;;;;5060536;28;19917;-81
2024/04/02 15:36:08;;;;;;;;;;;18.70;1.00;;;;;;5055486;28;20035;-80
2024/04/02 15:41:38;;;;;;;;;;;17.30;1.00;;;;;;5055908;28;19915;-78
2024/04/02 15:44:38;;;;;;;;;;;16.90;1.00;;;;;;5064835;28;19912;-79
2024/04/02 15:47:20;;;;;;;;;;;17.20;1.00;;;;;;5054918;28;19908;-79
2024/04/02 15:49:46;;;;;;;;;;;18.40;1.00;;;;;;5059250;28;19916;-79
2024/04/02 15:52:14;;;;;;;;;;;18.90;1.00;;;;;;5042436;28;20032;-78
2024/04/02 15:54:51;;;;;;;;;;;19.50;1.00;;;;;;5052916;28;19916;-76
2024/04/02 15:57:17;;;;;;;;;;;19.60;1.00;;;;;;5054723;28;19931;-78
2024/04/02 15:59:43;;;;;;;;;;;19.70;1.00;;;;;;5055539;28;19940;-80
2024/04/02 16:02:14;;;;;;;;;;;19.70;1.00;;;;;;5054393;28;20360;-78
2024/04/02 16:04:46;;;;;;;;;;;19.40;1.00;;;;;;5058076;28;20396;-76
2024/04/02 16:07:32;;;;;;;;;;;17.90;1.00;;;;;;5036995;28;19966;-78
2024/04/02 16:09:59;;;;;;;;;;;17.60;1.00;;;;;;5065630;28;19913;-78
2024/04/02 16:12:25;;;;;;;;;;;16.50;1.00;;;;;;5054455;28;20341;-77
2024/04/02 16:21:06;;;;;;;;;;;15.70;1.00;;;;;;5057664;28;19983;-82
2024/04/02 16:23:32;;;;;;;;;;;15.10;1.00;;;;;;5042473;28;20365;-81
2024/04/02 16:26:03;;;;;;;;;;;15.10;1.00;;;;;;5031725;28;19957;-80
2024/04/02 16:29:02;;;;;;;;;;;15.00;1.00;;;;;;5059819;28;19913;-79
2024/04/02 16:34:44;;;;;;;;;;;14.60;1.00;;;;;;5043121;28;20284;-78
2024/04/02 16:37:38;;;;;;;;;;;14.50;1.00;;;;;;5046367;28;19913;-78
2024/04/02 16:40:20;;;;;;;;;;;14.40;1.00;;;;;;5048566;28;20003;-78
2024/04/02 16:42:46;;;;;;;;;;;14.30;1.00;;;;;;5074017;28;19913;-78
2024/04/02 16:48:50;;;;;;;;;;;14.10;1.00;;;;;;5040833;28;20389;-78
2024/04/02 16:51:32;;;;;;;;;;;14.10;1.00;;;;;;5041473;28;19909;-78
2024/04/02 16:53:57;;;;;;;;;;;14.00;1.00;;;;;;5045157;28;20000;-77
2024/04/02 16:59:30;;;;;;;;;;;14.30;1.00;;;;;;5070910;28;20410;-77
2024/04/02 17:01:56;;;;;;;;;;;14.30;1.00;;;;;;5051903;28;20260;-80
2024/04/02 17:04:32;;;;;;;;;;;14.30;1.00;;;;;;5050626;28;19915;-78
2024/04/02 17:06:57;;;;;;;;;;;14.30;1.00;;;;;;5053396;28;19972;-77
2024/04/02 17:09:32;;;;;;;;;;;14.40;1.00;;;;;;5063324;28;19998;-77
2024/04/02 17:12:08;;;;;;;;;;;14.30;1.00;;;;;;5058338;28;19917;-78
2024/04/02 17:14:33;;;;;;;;;;;14.30;1.00;;;;;;5062424;28;19913;-79
2024/04/02 17:17:08;;;;;;;;;;;14.00;1.00;;;;;;5051732;28;19971;-79
2024/04/02 17:19:33;;;;;;;;;;;14.00;1.00;;;;;;5047003;28;19924;-79
2024/04/02 17:22:08;;;;;;;;;;;14.00;1.00;;;;;;5061131;28;19938;-78
2024/04/02 17:24:56;;;;;;;;;;;13.90;1.00;;;;;;5032087;28;19916;-78
2024/04/02 17:27:51;;;;;;;;;;;13.80;1.00;;;;;;5048927;28;19999;-78
2024/04/02 17:30:26;;;;;;;;;;;13.70;1.00;;;;;;5058255;28;19913;-78
2024/04/02 17:35:56;;;;;;;;;;;13.60;1.00;;;;;;5054842;28;19959;-78
2024/04/02 17:38:32;;;;;;;;;;;13.40;1.00;;;;;;5057511;28;19917;-77
2024/04/02 17:44:14;;;;;;;;;;;13.30;1.00;;;;;;5052856;28;19966;-78
2024/04/02 17:46:50;;;;;;;;;;;13.30;1.00;;;;;;5038865;28;19913;-78
2024/04/02 17:49:16;;;;;;;;;;;13.30;1.00;;;;;;5049782;28;20061;-78
2024/04/02 17:51:54;;;;;;;;;;;13.20;1.00;;;;;;5057451;28;20348;-79
2024/04/02 17:54:20;;;;;;;;;;;13.20;1.00;;;;;;5043805;28;19919;-75
2024/04/02 17:57:08;;;;;;;;;;;13.20;1.00;;;;;;5035955;28;19916;-78